createdAt,value
2022-10-31T00:01:35.861Z,99480.94
2022-10-31T00:04:05.564Z,99487.59
2022-10-31T00:06:34.343Z,99491.44
2022-10-31T00:09:05.211Z,99491.69
2022-10-31T00:11:34.058Z,99499.09
2022-10-31T00:14:02.771Z,99503.69
2022-10-31T00:16:31.902Z,99499.97
2022-10-31T00:19:06.123Z,99508.88
2022-10-31T00:21:35.525Z,99507.13
2022-10-31T00:24:05.194Z,99510.47
2022-10-31T00:26:34.032Z,99511.84
2022-10-31T00:29:02.757Z,99515.19
2022-10-31T00:31:31.693Z,99520.06
2022-10-31T00:34:00.584Z,99510.97
2022-10-31T00:36:29.079Z,99520.66
2022-10-31T00:38:57.803Z,99525.84
2022-10-31T00:41:26.375Z,99526.66
2022-10-31T00:43:54.720Z,99524.44
2022-10-31T00:46:23.093Z,99521.19
2022-10-31T00:48:51.399Z,99529.13
2022-10-31T00:51:19.732Z,99537.59
2022-10-31T00:53:48.047Z,99530.56
2022-10-31T00:56:16.383Z,99535.69
2022-10-31T00:58:44.815Z,99530.16
2022-10-31T01:01:13.219Z,99530.97
2022-10-31T01:03:41.991Z,99536.91
2022-10-31T01:06:13.466Z,99535.69
2022-10-31T01:08:42.288Z,99542.09
2022-10-31T01:11:14.971Z,99545.19
2022-10-31T01:13:43.805Z,99533.59
2022-10-31T01:16:18.175Z,99547.59
2022-10-31T01:18:46.831Z,99544.09
2022-10-31T01:21:19.020Z,99549.22
2022-10-31T01:23:47.934Z,99551.34
2022-10-31T01:26:22.425Z,99553.66
2022-10-31T01:28:54.670Z,99553.22
2022-10-31T01:31:25.523Z,99555.28
2022-10-31T01:33:54.923Z,99564.00
2022-10-31T01:36:27.498Z,99555.63
2022-10-31T01:38:59.599Z,99564.03
2022-10-31T01:41:31.370Z,99566.38
2022-10-31T01:44:03.239Z,99564.38
2022-10-31T01:46:34.398Z,99568.75
2022-10-31T01:49:06.460Z,99574.38
2022-10-31T01:51:41.027Z,99584.63
2022-10-31T01:54:13.733Z,99584.38
2022-10-31T01:56:47.043Z,99578.31
2022-10-31T01:59:19.493Z,99580.38
2022-10-31T02:01:49.987Z,99580.66
2022-10-31T02:04:20.030Z,99584.50
2022-10-31T02:06:54.211Z,99588.09
2022-10-31T02:09:25.863Z,99585.31
2022-10-31T02:11:56.649Z,99586.09
2022-10-31T02:14:27.534Z,99594.00
2022-10-31T02:16:59.240Z,99589.97
2022-10-31T02:19:46.775Z,99587.44
2022-10-31T02:22:30.143Z,99588.97
2022-10-31T02:25:01.528Z,99586.19
2022-10-31T02:27:50.808Z,99581.63
2022-10-31T02:30:25.938Z,99577.53
2022-10-31T02:33:02.229Z,99581.88
2022-10-31T02:35:42.576Z,99582.66
2022-10-31T02:38:13.658Z,99580.59
2022-10-31T02:40:53.806Z,99577.31
2022-10-31T02:43:42.327Z,99575.25
2022-10-31T02:46:29.897Z,99567.59
2022-10-31T02:49:06.325Z,99569.91
2022-10-31T02:51:35.280Z,99566.84
2022-10-31T02:54:03.745Z,99565.78
2022-10-31T02:56:32.096Z,99558.88
2022-10-31T02:59:06.436Z,99554.81
2022-10-31T03:01:56.157Z,99551.47
2022-10-31T03:04:30.645Z,99548.09
2022-10-31T03:07:27.202Z,99558.03
2022-10-31T03:10:32.638Z,99556.75
2022-10-31T03:13:15.959Z,99549.34
2022-10-31T03:15:51.643Z,99548.53
2022-10-31T03:18:31.810Z,99553.09
2022-10-31T03:21:13.227Z,99546.19
2022-10-31T03:23:42.585Z,99543.88
2022-10-31T03:26:13.894Z,99531.06
2022-10-31T03:29:03.496Z,99520.53
2022-10-31T03:31:38.007Z,99519.72
2022-10-31T03:34:09.040Z,99518.16
2022-10-31T03:36:40.703Z,99515.56
2022-10-31T03:39:15.147Z,99517.84
2022-10-31T03:41:49.236Z,99515.47
2022-10-31T03:44:21.416Z,99510.53
2022-10-31T03:46:49.941Z,99506.84
2022-10-31T03:49:19.265Z,99493.72
2022-10-31T03:52:24.789Z,99488.53
2022-10-31T03:55:12.953Z,99495.84
2022-10-31T03:58:06.155Z,99488.63
2022-10-31T04:00:37.257Z,99477.00
2022-10-31T04:03:24.771Z,99469.25
2022-10-31T04:05:56.376Z,99468.66
2022-10-31T04:08:30.176Z,99465.78
2022-10-31T04:11:02.087Z,99468.31
2022-10-31T04:13:34.100Z,99455.44
2022-10-31T04:16:02.581Z,99459.72
2022-10-31T04:18:30.947Z,99449.88
2022-10-31T04:21:04.891Z,99445.72
2022-10-31T04:23:33.673Z,99441.56
2022-10-31T04:26:01.986Z,99441.47
2022-10-31T04:28:30.423Z,99437.28
2022-10-31T04:30:58.824Z,99431.03
2022-10-31T04:33:27.158Z,99425.31
2022-10-31T04:35:55.513Z,99423.16
2022-10-31T04:38:23.836Z,99418.72
2022-10-31T04:40:52.121Z,99419.94
2022-10-31T04:45:49.068Z,99405.44
2022-10-31T04:48:17.572Z,99400.50
2022-10-31T04:50:46.106Z,99394.84
2022-10-31T04:53:14.431Z,99389.44
2022-10-31T04:55:42.851Z,99393.69
2022-10-31T04:58:11.271Z,99392.59
2022-10-31T05:00:42.385Z,99376.09
2022-10-31T05:03:10.855Z,99375.28
2022-10-31T05:05:39.160Z,99368.00
2022-10-31T05:08:07.734Z,99367.03
2022-10-31T05:10:36.097Z,99367.25
2022-10-31T05:13:06.032Z,99363.88
2022-10-31T05:15:34.806Z,99362.78
2022-10-31T05:18:03.796Z,99364.75
2022-10-31T05:20:33.464Z,99358.22
2022-10-31T05:23:02.290Z,99349.13
2022-10-31T05:25:31.561Z,99353.03
2022-10-31T05:28:00.429Z,99350.31
2022-10-31T05:30:33.904Z,99352.28
2022-10-31T05:33:02.813Z,99345.53
2022-10-31T05:35:33.203Z,99336.00
2022-10-31T05:38:02.155Z,99335.13
2022-10-31T05:40:30.993Z,99328.16
2022-10-31T05:43:02.785Z,99324.56
2022-10-31T05:45:31.364Z,99315.13
2022-10-31T05:48:04.572Z,99317.75
2022-10-31T05:50:34.309Z,99312.97
2022-10-31T05:53:05.175Z,99303.41
2022-10-31T05:55:34.175Z,99296.56
2022-10-31T05:58:02.801Z,99298.50
2022-10-31T06:00:32.343Z,99302.69
2022-10-31T06:03:06.609Z,99291.59
2022-10-31T06:05:35.399Z,99288.47
2022-10-31T06:08:04.089Z,99281.50
2022-10-31T06:10:32.709Z,99276.63
2022-10-31T06:13:01.079Z,99276.28
2022-10-31T06:15:29.395Z,99272.91
2022-10-31T06:18:08.087Z,99271.03
2022-10-31T06:20:37.485Z,99267.47
2022-10-31T06:23:06.503Z,99261.06
2022-10-31T06:25:35.483Z,99249.97
2022-10-31T06:28:05.057Z,99252.88
2022-10-31T06:30:33.391Z,99252.19
2022-10-31T06:33:07.843Z,99242.09
2022-10-31T06:35:36.198Z,99237.81
2022-10-31T06:38:04.882Z,99238.22
2022-10-31T06:40:33.553Z,99239.31
2022-10-31T06:43:02.919Z,99228.78
2022-10-31T06:45:31.261Z,99221.75
2022-10-31T06:50:48.343Z,99213.63
2022-10-31T06:53:16.895Z,99211.13
2022-10-31T06:55:45.424Z,99209.59
2022-10-31T06:58:14.112Z,99210.50
2022-10-31T07:00:42.530Z,99206.16
2022-10-31T07:03:15.648Z,99204.09
2022-10-31T07:05:44.920Z,99212.22
2022-10-31T07:08:15.395Z,99203.41
2022-10-31T07:10:45.556Z,99203.28
2022-10-31T07:13:16.518Z,99193.88
2022-10-31T07:15:45.893Z,99202.78
2022-10-31T07:18:14.951Z,99200.91
2022-10-31T07:20:43.312Z,99195.25
2022-10-31T07:23:13.039Z,99201.47
2022-10-31T07:25:42.248Z,99191.06
2022-10-31T07:28:10.838Z,99187.28
2022-10-31T07:30:40.374Z,99185.00
2022-10-31T07:33:08.949Z,99185.56
2022-10-31T07:35:37.302Z,99197.94
2022-10-31T07:38:13.965Z,99186.31
2022-10-31T07:40:44.039Z,99189.16
2022-10-31T07:43:15.428Z,99187.28
2022-10-31T07:45:43.958Z,99180.47
2022-10-31T07:48:12.300Z,99177.41
2022-10-31T07:50:41.191Z,99183.06
2022-10-31T07:53:13.803Z,99184.94
2022-10-31T07:55:42.935Z,99181.13
2022-10-31T07:58:16.478Z,99187.34
2022-10-31T08:00:46.936Z,99184.09
2022-10-31T08:03:17.913Z,99185.94
2022-10-31T08:05:48.104Z,99189.88
2022-10-31T08:08:17.842Z,99183.06
2022-10-31T08:10:48.004Z,99188.91
2022-10-31T08:13:16.855Z,99193.81
2022-10-31T08:15:46.430Z,99182.50
2022-10-31T08:18:16.571Z,99179.13
2022-10-31T08:20:45.670Z,99181.41
2022-10-31T08:23:15.406Z,99178.03
2022-10-31T08:25:44.314Z,99185.94
2022-10-31T08:28:13.865Z,99182.16
2022-10-31T08:30:43.590Z,99179.69
2022-10-31T08:33:19.750Z,99180.16
2022-10-31T08:35:48.131Z,99182.91
2022-10-31T08:38:16.903Z,99179.81
2022-10-31T08:40:45.326Z,99182.00
2022-10-31T08:43:16.097Z,99181.56
2022-10-31T08:45:45.655Z,99183.41
2022-10-31T08:48:16.662Z,99183.00
2022-10-31T08:50:46.685Z,99188.44
2022-10-31T08:53:19.363Z,99190.50
2022-10-31T08:55:48.802Z,99181.28
2022-10-31T08:58:22.151Z,99181.84
2022-10-31T09:00:53.330Z,99187.25
2022-10-31T09:03:29.064Z,99187.59
2022-10-31T09:06:02.575Z,99189.22
2022-10-31T09:08:35.057Z,99187.81
2022-10-31T09:11:04.527Z,99188.69
2022-10-31T09:13:33.359Z,99189.03
2022-10-31T09:16:02.229Z,99193.50
2022-10-31T09:18:30.592Z,99192.31
2022-10-31T09:21:01.047Z,99203.19
2022-10-31T09:23:30.109Z,99193.50
2022-10-31T09:26:01.314Z,99203.59
2022-10-31T09:28:29.645Z,99198.28
2022-10-31T09:30:58.000Z,99213.28
2022-10-31T09:33:26.403Z,99214.34
2022-10-31T09:35:54.820Z,99215.41
2022-10-31T09:38:25.241Z,99217.06
2022-10-31T09:41:11.156Z,99223.75
2022-10-31T09:44:10.206Z,99218.44
2022-10-31T09:46:59.091Z,99223.66
2022-10-31T09:50:14.339Z,99232.97
2022-10-31T09:52:50.897Z,99226.13
2022-10-31T09:55:44.268Z,99235.25
2022-10-31T09:58:28.777Z,99240.19
2022-10-31T10:01:02.210Z,99238.25
2022-10-31T10:03:51.873Z,99248.09
2022-10-31T10:06:26.310Z,99251.78
2022-10-31T10:08:54.746Z,99251.84
2022-10-31T10:11:34.682Z,99257.00
2022-10-31T10:14:24.115Z,99258.41
2022-10-31T10:17:04.944Z,99259.78
2022-10-31T10:19:54.321Z,99266.81
2022-10-31T10:22:33.746Z,99268.19
2022-10-31T10:25:22.246Z,99260.34
2022-10-31T10:28:22.342Z,99269.41
2022-10-31T10:31:04.076Z,99272.84
2022-10-31T10:33:50.211Z,99272.69
2022-10-31T10:36:29.069Z,99273.81
2022-10-31T10:39:06.617Z,99276.47
2022-10-31T10:41:35.757Z,99280.41
2022-10-31T10:44:04.124Z,99293.78
2022-10-31T10:47:02.578Z,99296.44
2022-10-31T10:49:51.579Z,99290.44
2022-10-31T10:52:50.596Z,99290.00
2022-10-31T10:55:40.714Z,99292.38
2022-10-31T10:58:11.111Z,99293.50
2022-10-31T11:00:51.681Z,99298.16
2022-10-31T11:03:21.142Z,99296.72
2022-10-31T11:06:03.718Z,99300.88
2022-10-31T11:08:35.902Z,99302.72
2022-10-31T11:11:12.833Z,99302.53
2022-10-31T11:13:44.424Z,99299.78
2022-10-31T11:16:38.118Z,99299.59
2022-10-31T11:19:19.421Z,99301.66
2022-10-31T11:21:53.636Z,99303.47
2022-10-31T11:24:29.379Z,99304.06
2022-10-31T11:27:24.278Z,99303.84
2022-10-31T11:29:56.883Z,99302.34
2022-10-31T11:32:31.715Z,99305.72
2022-10-31T11:35:03.941Z,99308.56
2022-10-31T11:37:37.589Z,99304.28
2022-10-31T11:40:08.773Z,99311.94
2022-10-31T11:42:45.633Z,99309.16
2022-10-31T11:45:30.277Z,99310.44
2022-10-31T11:48:02.290Z,99312.53
2022-10-31T11:50:38.749Z,99320.47
2022-10-31T11:53:21.276Z,99308.47
2022-10-31T11:56:06.281Z,99324.06
2022-10-31T11:58:34.885Z,99325.59
2022-10-31T12:01:03.250Z,99339.13
2022-10-31T12:03:54.813Z,99342.97
2022-10-31T12:06:28.156Z,99348.84
2022-10-31T12:08:56.538Z,99354.72
2022-10-31T12:12:09.389Z,99358.28
2022-10-31T12:14:57.031Z,99361.59
2022-10-31T12:17:49.289Z,99368.50
2022-10-31T12:20:39.248Z,99362.63
2022-10-31T12:23:47.361Z,99377.16
2022-10-31T12:26:43.260Z,99379.47
2022-10-31T12:29:35.424Z,99382.53
2022-10-31T12:32:30.993Z,99378.47
2022-10-31T12:35:17.127Z,99392.47
2022-10-31T12:37:53.640Z,99398.81
2022-10-31T12:41:00.036Z,99399.59
2022-10-31T12:43:37.023Z,99399.09
2022-10-31T12:46:10.473Z,99405.72
2022-10-31T12:48:55.405Z,99408.78
2022-10-31T12:51:35.786Z,99409.78
2022-10-31T12:54:42.712Z,99418.44
2022-10-31T12:57:34.847Z,99425.06
2022-10-31T13:00:14.082Z,99426.84
2022-10-31T13:02:54.100Z,99432.19
2022-10-31T13:05:27.556Z,99435.22
2022-10-31T13:08:36.074Z,99434.97
2022-10-31T13:11:37.382Z,99446.19
2022-10-31T13:14:09.779Z,99444.41
2022-10-31T13:16:43.657Z,99444.16
2022-10-31T13:19:27.483Z,99448.97
2022-10-31T13:22:39.973Z,99454.31
2022-10-31T13:25:10.957Z,99462.47
2022-10-31T13:27:46.778Z,99461.44
2022-10-31T13:30:19.158Z,99464.75
2022-10-31T13:33:25.558Z,99461.66
2022-10-31T13:36:03.022Z,99469.56
2022-10-31T13:38:49.726Z,99478.97
2022-10-31T13:41:36.641Z,99476.38
2022-10-31T13:44:26.684Z,99477.91
2022-10-31T13:46:56.858Z,99484.50
2022-10-31T13:49:28.191Z,99480.69
2022-10-31T13:52:27.069Z,99488.81
2022-10-31T13:54:59.270Z,99487.03
2022-10-31T13:57:39.925Z,99491.09
2022-10-31T14:00:23.683Z,99493.63
2022-10-31T14:02:56.355Z,99498.44
2022-10-31T14:05:30.448Z,99500.47
2022-10-31T14:08:01.779Z,99496.16
2022-10-31T14:10:40.343Z,99506.59
2022-10-31T14:13:16.849Z,99510.38
2022-10-31T14:16:04.202Z,99501.72
2022-10-31T14:18:39.484Z,99511.41
2022-10-31T14:21:26.225Z,99511.91
2022-10-31T14:23:55.551Z,99512.41
2022-10-31T14:26:32.852Z,99511.38
2022-10-31T14:29:23.163Z,99511.09
2022-10-31T14:32:23.500Z,99519.25
2022-10-31T14:34:54.933Z,99518.22
2022-10-31T14:37:36.112Z,99516.41
2022-10-31T14:40:42.684Z,99526.84
2022-10-31T14:43:46.493Z,99527.06
2022-10-31T14:46:47.439Z,99527.81
2022-10-31T14:49:40.310Z,99530.34
2022-10-31T14:52:10.734Z,99533.91
2022-10-31T14:54:45.224Z,99537.47
2022-10-31T14:57:23.164Z,99534.41
2022-10-31T15:00:03.931Z,99536.94
2022-10-31T15:03:01.837Z,99538.97
2022-10-31T15:05:31.974Z,99545.84
2022-10-31T15:08:01.187Z,99541.50
2022-10-31T15:10:37.100Z,99550.69
2022-10-31T15:13:26.038Z,99550.69
2022-10-31T15:15:57.912Z,99553.47
2022-10-31T15:18:28.786Z,99547.09
2022-10-31T15:20:58.868Z,99548.63
2022-10-31T15:23:31.281Z,99544.56
2022-10-31T15:26:05.186Z,99552.47
2022-10-31T15:28:34.005Z,99553.25
2022-10-31T15:31:04.283Z,99554.78
2022-10-31T15:33:46.988Z,99549.94
2022-10-31T15:36:29.807Z,99561.91
2022-10-31T15:38:59.666Z,99560.13
2022-10-31T15:41:30.908Z,99556.88
2022-10-31T15:44:05.041Z,99553.28
2022-10-31T15:46:33.702Z,99560.44
2022-10-31T15:49:02.878Z,99555.59
2022-10-31T15:51:35.917Z,99559.94
2022-10-31T15:54:04.306Z,99559.41
2022-10-31T15:56:34.366Z,99562.50
2022-10-31T15:59:04.229Z,99564.03
2022-10-31T16:01:34.916Z,99555.13
2022-10-31T16:04:22.857Z,99567.84
2022-10-31T16:07:20.151Z,99568.13
2022-10-31T16:10:28.909Z,99567.59
2022-10-31T16:12:57.607Z,99567.09
2022-10-31T16:15:26.146Z,99567.88
2022-10-31T16:17:59.255Z,99567.09
2022-10-31T16:20:33.998Z,99564.31
2022-10-31T16:23:02.989Z,99565.06
2022-10-31T16:25:39.012Z,99559.22
2022-10-31T16:28:25.489Z,99562.50
2022-10-31T16:31:01.182Z,99565.06
2022-10-31T16:33:30.148Z,99571.16
2022-10-31T16:36:09.531Z,99568.84
2022-10-31T16:38:44.401Z,99563.75
2022-10-31T16:41:12.737Z,99561.47
2022-10-31T16:43:41.362Z,99564.25
2022-10-31T16:46:17.004Z,99570.63
2022-10-31T16:48:45.342Z,99558.41
2022-10-31T16:51:13.716Z,99562.72
2022-10-31T16:53:46.518Z,99555.59
2022-10-31T16:56:22.760Z,99560.44
2022-10-31T16:58:51.193Z,99553.28
2022-10-31T17:01:19.605Z,99557.34
2022-10-31T17:03:48.012Z,99555.03
2022-10-31T17:06:16.804Z,99552.75
2022-10-31T17:08:45.111Z,99554.00
2022-10-31T17:11:23.068Z,99549.69
2022-10-31T17:13:51.466Z,99545.84
2022-10-31T17:16:19.840Z,99551.19
2022-10-31T17:18:48.539Z,99551.69
2022-10-31T17:21:25.034Z,99545.81
2022-10-31T17:23:53.652Z,99541.97
2022-10-31T17:26:22.169Z,99539.69
2022-10-31T17:28:51.555Z,99539.41
2022-10-31T17:31:31.222Z,99534.81
2022-10-31T17:34:02.736Z,99540.16
2022-10-31T17:36:33.485Z,99532.69
2022-10-31T17:39:01.958Z,99525.31
2022-10-31T17:41:30.398Z,99529.88
2022-10-31T17:44:02.344Z,99530.88
2022-10-31T17:46:30.647Z,99527.03
2022-10-31T17:49:01.778Z,99529.56
2022-10-31T17:51:30.317Z,99521.41
2022-10-31T17:53:59.859Z,99532.31
2022-10-31T17:56:28.346Z,99522.13
2022-10-31T17:58:59.076Z,99523.91
2022-10-31T18:01:27.567Z,99512.91
2022-10-31T18:03:55.956Z,99522.56
2022-10-31T18:06:24.339Z,99509.59
2022-10-31T18:08:52.713Z,99512.59
2022-10-31T18:11:22.804Z,99513.59
2022-10-31T18:13:59.676Z,99501.88
2022-10-31T18:16:28.469Z,99508.97
2022-10-31T18:19:02.868Z,99495.22
2022-10-31T18:21:31.762Z,99496.69
2022-10-31T18:24:03.035Z,99488.53
2022-10-31T18:26:31.452Z,99488.75
2022-10-31T18:28:59.885Z,99489.72
2022-10-31T18:31:28.383Z,99485.13
2022-10-31T18:33:58.064Z,99476.97
2022-10-31T18:36:26.770Z,99481.50
2022-10-31T18:38:55.468Z,99476.13
2022-10-31T18:41:23.831Z,99480.69
2022-10-31T18:43:53.046Z,99471.25
2022-10-31T18:46:22.145Z,99472.22
2022-10-31T18:48:50.524Z,99477.53
2022-10-31T18:51:19.208Z,99472.94
2022-10-31T18:53:55.338Z,99475.47
2022-10-31T18:56:24.212Z,99471.63
2022-10-31T18:58:53.068Z,99469.06
2022-10-31T19:01:22.934Z,99478.44
2022-10-31T19:03:57.181Z,99470.28
2022-10-31T19:06:27.731Z,99471.22
2022-10-31T19:09:05.590Z,99473.47
2022-10-31T19:11:35.384Z,99464.56
2022-10-31T19:14:04.868Z,99465.81
2022-10-31T19:16:36.004Z,99459.69
2022-10-31T19:19:04.584Z,99462.97
2022-10-31T19:21:33.468Z,99461.91
2022-10-31T19:24:02.222Z,99454.81
2022-10-31T19:26:30.966Z,99458.09
2022-10-31T19:28:59.390Z,99452.22
2022-10-31T19:31:28.043Z,99452.72
2022-10-31T19:33:56.508Z,99458.31
2022-10-31T19:36:25.392Z,99455.50
2022-10-31T19:38:54.911Z,99459.06
2022-10-31T19:41:27.538Z,99454.25
2022-10-31T19:43:56.801Z,99448.94
2022-10-31T19:46:48.228Z,99458.09
2022-10-31T19:49:13.930Z,99446.44
2022-10-31T19:51:42.342Z,99443.66
2022-10-31T19:54:11.625Z,99447.19
2022-10-31T19:56:40.015Z,99458.09
2022-10-31T19:59:08.985Z,99458.09
2022-10-31T20:01:37.391Z,99455.78
2022-10-31T20:04:05.914Z,99449.16
2022-10-31T20:06:43.421Z,99449.66
2022-10-31T20:09:14.646Z,99448.13
2022-10-31T20:11:45.655Z,99451.88
2022-10-31T20:14:16.049Z,99446.03
2022-10-31T20:16:45.745Z,99447.50
2022-10-31T20:19:14.094Z,99447.97
2022-10-31T20:21:43.322Z,99432.69
2022-10-31T20:24:12.574Z,99438.47
2022-10-31T20:26:42.388Z,99434.66
2022-10-31T20:29:16.931Z,99436.13
2022-10-31T20:31:47.071Z,99440.34
2022-10-31T20:34:16.165Z,99438.53
2022-10-31T20:36:44.751Z,99438.75
2022-10-31T20:39:13.206Z,99437.72
2022-10-31T20:41:41.590Z,99438.69
2022-10-31T20:44:10.092Z,99437.63
2022-10-31T20:46:38.447Z,99446.50
2022-10-31T20:49:06.938Z,99438.91
2022-10-31T20:51:35.255Z,99446.22
2022-10-31T20:54:03.552Z,99441.91
2022-10-31T20:56:31.895Z,99447.97
2022-10-31T20:59:00.255Z,99450.47
2022-10-31T21:01:31.955Z,99446.16
2022-10-31T21:04:01.088Z,99448.13
2022-10-31T21:06:30.690Z,99443.53
2022-10-31T21:09:00.127Z,99447.59
2022-10-31T21:11:29.356Z,99438.44
2022-10-31T21:13:58.292Z,99436.16
2022-10-31T21:16:33.317Z,99442.97
2022-10-31T21:19:02.931Z,99436.63
2022-10-31T21:21:34.881Z,99439.16
2022-10-31T21:24:09.656Z,99441.66
2022-10-31T21:26:41.904Z,99437.06
2022-10-31T21:29:11.956Z,99444.38
2022-10-31T21:31:41.500Z,99448.41
2022-10-31T21:34:10.806Z,99442.56
2022-10-31T21:36:39.798Z,99443.81
2022-10-31T21:39:10.272Z,99443.31
2022-10-31T21:41:38.746Z,99447.34
2022-10-31T21:44:07.120Z,99449.66
2022-10-31T21:46:35.667Z,99453.22
2022-10-31T21:49:05.037Z,99453.97
2022-10-31T21:51:36.383Z,99456.00
2022-10-31T21:54:23.442Z,99448.41
2022-10-31T21:56:52.627Z,99458.78
2022-10-31T21:59:21.142Z,99456.78
2022-10-31T22:01:49.861Z,99451.69
2022-10-31T22:04:18.448Z,99455.25
2022-10-31T22:06:47.191Z,99456.00
2022-10-31T22:09:16.596Z,99470.44
2022-10-31T22:11:45.009Z,99468.13
2022-10-31T22:14:15.176Z,99468.91
2022-10-31T22:16:43.600Z,99472.16
2022-10-31T22:19:14.102Z,99475.44
2022-10-31T22:21:47.282Z,99476.69
2022-10-31T22:24:17.025Z,99476.38
2022-10-31T22:26:45.661Z,99480.44
2022-10-31T22:29:16.823Z,99480.91
2022-10-31T22:31:50.580Z,99483.41
2022-10-31T22:34:22.284Z,99482.38
2022-10-31T22:36:50.692Z,99491.50
2022-10-31T22:39:19.133Z,99487.16
2022-10-31T22:41:47.466Z,99489.19
2022-10-31T22:44:15.801Z,99491.22
2022-10-31T22:46:44.167Z,99491.22
2022-10-31T22:49:18.738Z,99502.34
2022-10-31T22:51:47.441Z,99498.03
2022-10-31T22:54:18.992Z,99510.44
2022-10-31T22:56:47.795Z,99515.25
2022-10-31T22:59:17.679Z,99510.44
2022-10-31T23:01:46.892Z,99516.50
2022-10-31T23:04:17.241Z,99509.34
2022-10-31T23:06:46.026Z,99515.41
2022-10-31T23:09:16.784Z,99521.47
2022-10-31T23:11:45.783Z,99515.13
2022-10-31T23:14:21.446Z,99524.72
2022-10-31T23:16:58.549Z,99525.22
2022-10-31T23:19:29.268Z,99537.63
2022-10-31T23:22:05.909Z,99528.97
2022-10-31T23:24:40.519Z,99531.75
2022-10-31T23:27:11.752Z,99532.53
2022-10-31T23:29:45.955Z,99541.16
2022-10-31T23:32:23.625Z,99533.56
2022-10-31T23:34:54.046Z,99537.41
2022-10-31T23:37:24.469Z,99536.94
2022-10-31T23:39:52.978Z,99542.78
2022-10-31T23:42:21.566Z,99540.31
2022-10-31T23:44:50.909Z,99547.72
2022-10-31T23:47:19.973Z,99546.75
2022-10-31T23:49:48.818Z,99551.34
2022-10-31T23:52:17.636Z,99560.31
2022-10-31T23:54:46.185Z,99559.84
2022-10-31T23:57:16.555Z,99567.22
2022-10-31T23:59:45.302Z,99570.59
